Glendora, Michigan
Current Conditions -  °F | °C
As of 10:54 AM on Friday 24 Oct 2014 (Local Time) from KSBN Reporting Station
Overcast Overcast  
Wind Chill: 54°   Ceiling: 2500
Heat Index: 54°   Visibility: 10mi
Dew Point: 46°   Wind: 5mph
Humidity: 75%   Direction: 200°SSW
Pressure: 30.09"   Gusts: NA
Location:  41.8486°N, 86.4165°W
Report Text: KSBN 241454Z 20004KT 10SM OVC025 12/08 A3009 RMK AO2 SLP191 T01220078 51006
Loading
Personal Weather Stations






























Interactive Weather Map
Tropical Storm Tracking
New forecast layout! Learn more

10-Day Weather Forecast

Advertisements
Track Severe Weather on mobile